Impacts TAF Board
For situational awareness. Not to be used for flight planning purposes.
IDs:

KFHU - Fort Huachuca/Libby, AZ, US

Issued at 1400 UTC 30 Oct 2020
Updated at 1651 UTC 30 Oct 2020
Potential Impact None Slight Moderate High
Time1558Z 30/17Z 30/18Z 30/19Z 30/20Z 30/21Z 30/22Z 30/23Z 31/00Z 31/01Z 31/02Z 31/03Z 31/04Z 31/05Z>>
Type OBS PRVL PRVL PRVL PRVL PRVL
  [TEMP]  
PRVL
  [TEMP]  
PRVL
  [TEMP]  
PRVL
  [TEMP]  
PRVL PRVL PRVL PRVL PRVL
VIS 10 >6 >6 >6 >6 >6 >6 >6 >6 >6 >6 >6 >6 >6
CIG -- -- -- -- -- --
  [--]  
--
  [--]  
--
  [--]  
--
  [--]  
-- -- -- -- --
Cover CLR FEW FEW FEW SCT SCT
  [SCT]  
SCT
  [SCT]  
SCT
  [SCT]  
FEW
  [FEW]  
FEW FEW FEW FEW FEW
FltCat VFR VFR VFR VFR VFR VFR
  [VFR]  
VFR
  [VFR]  
VFR
  [VFR]  
VFR
  [VFR]  
VFR VFR VFR VFR VFR
WX -- -- -- -- -- --
  [--]  
--
  [--]  
--
  [--]  
--
  [--]  
-- -- -- -- --
WDir 60 120 120 120 150 150
[150]
150
[150]
150
[150]
180
[150]
180 180 180 180 180
WSpd 5 9 9 9 9 9
  [10]  
9
  [10]  
9
  [10]  
6
  [10]  
6 6 6 6 6
WGst -- -- -- -- -- --
  [18]  
--
  [18]  
--
  [18]  
--
  [18]  
-- -- -- -- --
Raw TAF
TAF KFHU 301400Z 3014/3120 12009KT 9999 FEW250 QNH3012INS
  BECMG 3020/3021 15009KT 9999 SCT250 QNH3011INS
  TEMPO 3021/3101 15010G18KT 510005
  BECMG 3100/3101 18006KT 9999 FEW250 QNH3012INS TX26/3023Z TN05/3014Z


Raw METAR
KFHU 301558Z AUTO 06005KT 10SM CLR 15/M02 A3024 RMK AO2 SLP195 T01511025
KFHU 301535Z 08005KT 10SM CLR 14/M02 A3024 RMK AO2A SLP198
KFHU 301458Z 00000KT 10SM CLR 11/M02 A3022 RMK AO2A SLP195 T01081021 52012
KFHU 301428Z 00000KT 10SM CLR 10/M02 A3022 RMK AO2A SLP198
KFHU 301358Z 00000KT 10SM CLR 07/M03 A3020 RMK AO2A SLP191 T00731034

METAR Board
For situational awareness. Not to be used for flight planning purposes.